PANCPADG

Guest
Details From PANC - Ted Stevens Anchorage Intl
To PADG - RED DOG
Flight Number -
Tags decoded
Created
Modified
Stats Distance 546 nm / 1,011 km
Max Altitude 0 ft / 0 m
Waypoints 5
Social Downloads 0
Likes 0
Share VATSIM

Download

Looking for another format? Having issues loading an existing format? Contact us
Advertisement - Login to hide

Notes

Requested: PANC BGQ J115 TED J133 GAL J117 OTZ PADG Unmatched points: J115 J133 J117

Route

PANC TED GAL OTZ PADG

ID Type Via Altitude Latitude Longitude Leg Dist Tot Dist Heading (true) Name
O PANC APT - 0 ft / 0 m 61.17411˚ -149.99598˚ - 0 nm - Ted Stevens Anchorage Intl
TED VOR - 0 ft / 0 m 61.16786˚ -149.96014˚ 1 nm 1 nm 110° / 110° ANCHORAGE VOR-DME
GAL VOR - 0 ft / 0 m 64.73814˚ -156.77714˚ 283 nm 284 nm 322° / 316° GALENA VOR-DME
OTZ VOR - 0 ft / 0 m 66.88569˚ -162.53994˚ 191 nm 476 nm 315° / 310° KOTZEBUE VOR-DME
O PADG APT - 0 ft / 0 m 68.03210˚ -162.89918˚ 69 nm 545 nm 353° / 353° RED DOG

Altitude Profile

Advertisement - Login to hide

Weather


0- 5 10 15 20 25 30 35+ Temperature / ° C

Clouds and Precipitation
Forecast for 2018-05-27 18:00 UTC. Updated 31 minutes ago

Ground ~20,000 ft ~40,000 ft Winds

PANC

Details ICAO PANC (ANC)
Name Ted Stevens Anchorage Intl
Region USA (Alaska)
Timezone America/Anchorage (UTC-8.0)
Stats Elevation 152 ft / 46 m (AMSL)
Location 61.174111° -149.995982°
Runways 3
Magnetic Variation 16.068° E

METAR

PANC 271653Z 00000KT 10SM SCT080 BKN110 BKN200 11/03 A2962

Decode

TAF

TAF AMD PANC 271511Z 2715/2818 17005KT P6SM SCT100 BKN200 FM271800 27005KT P6SM SCT100 BKN250 FM272100 27008KT P6SM VCSH SCT060 BKN100 FM280300 19006KT P6SM VCSH BKN050 OVC080 FM280900 17006KT P6SM SCT050 BKN100

Decode

Departure Runways

ID Width Length Bearing (true) Bearing (mag) Surface Threshold Offset Overrun Length
07L 151 ft / 46 m 10,563 ft / 3,220 m 89.88° 73.81° Asphalt 0 ft / 0 m 381 ft / 116 m
07R 151 ft / 46 m 10,862 ft / 3,311 m 89.85° 73.78° Asphalt 0 ft / 0 m 499 ft / 152 m
15 151 ft / 46 m 11,563 ft / 3,524 m 164.90° 148.83° Asphalt 200 ft / 61 m 220 ft / 67 m
25L 151 ft / 46 m 10,862 ft / 3,311 m 269.91° 253.84° Asphalt 0 ft / 0 m 151 ft / 46 m
25R 151 ft / 46 m 10,563 ft / 3,220 m 269.94° 253.87° Asphalt 0 ft / 0 m 381 ft / 116 m
33 151 ft / 46 m 11,563 ft / 3,524 m 344.91° 328.84° Asphalt 892 ft / 272 m 449 ft / 137 m

PADG

Details ICAO PADG
Name RED DOG
Region USA (Alaska)
Timezone America/Nome (UTC-8.0)
Stats Elevation 974 ft / 297 m (AMSL)
Location 68.032101° -162.899183°
Runways 1
Magnetic Variation 11.251° E

METAR

PADG 271658Z 00000KT 1/2SM FG VV000 M01/M01 A2985

Decode

TAF

Not found

Destination Runways

ID Width Length Bearing (true) Bearing (mag) Surface Threshold Offset Overrun Length
02 100 ft / 30 m 5,735 ft / 1,748 m 41.03° 29.78° Asphalt 300 ft / 91 m 0 ft / 0 m
20 100 ft / 30 m 5,735 ft / 1,748 m 221.06° 209.81° Asphalt 300 ft / 91 m 0 ft / 0 m

Popular Alternatives